AREA preflight bulletin
Updated "live" 22 Jul 2017, 08:51

back to the map




METAR og TAF


THULE (MIL)
  AKTUEL BGTL 220758Z AUTO 17009KT 9999 SCT039 OVC070 07/02 A2980 RMK AO2 CIG 037 RWY26 SLP074 T00730018 ?=
  TAF 24 timer BGTL 220100Z 2201/2307 12006KT 9999 SCT250 QNH2974INS BECMG 2213/2214 14006KT 9999 BKN025 OVC045 QNH2978INS BECMG 2223/2224 VRB06KT 9999 FEW025 SCT045 QNH2981INS TX10/2221Z TNM01/2206Z LAST NO AMDS AFT 2201 NEXT 2209=

QAANAAQ
  AKTUEL BGQQ 220850Z AUTO 14006KT 9999NDV NCD 06/02 Q1009=
  TAF 9 timer BGQQ 211856Z 2118/2121 CNL=

UPERNAVIK
  AKTUEL BGUK 220850Z AUTO 08007KT 9999NDV NCD 08/M01 Q1008=
  TAF 9 timer BGUK 211856Z 2118/2119 09015KT 9999 -RA SCT010 BKN050=

ILULISSAT
  AKTUEL BGJN 220850Z AUTO 08011KT 9999NDV NCD 08/M04 Q1007=
  TAF 9 timer BGJN 212315Z 2200/2203 10012KT 9999 FEW200=

KANGERLUSSUAQ
  AKTUEL BGSF 220820Z AUTO 07007KT 9999NDV NCD 06/01 Q1008=
  TAF 24 timer BGSF 220451Z 2206/2224 06008KT 9999 FEW200=


SIGMETS:

Ingen SIGMET fundet:

NOTAM/SNOWTAM for operationel use has to be confirmed with the
nearest AIS Briefing Office prior to a flight.

ICAO
BGTL (THULE (MIL))

FIR
BGGL

Notam_id:
BGA0259/17

valid from:
1707200000

E) TRIGGER NOTAM - PERM AIP AIRAC AMDT 07/17 WEF 20 JUL 2017. CHANGE IN MAG VAR. CHANGE IN OPERATIONAL HOURS AT FUELLING, HANDLING AND TEL UNDER REMARKS. CHANGES IN REMARKS AT THT VORTAC

valid to:
1708022359




ICAO
BGTL (THULE (MIL))

FIR
BGGL

Notam_id:
BGA0239/17

valid from:
1705151130

E) TWY A-26 CLSD EAST OF THE AIR TRAFFIC CONTROL TOWER TO RWY 26T.UNCONTROLLED MEN AND EQUIPMENT WORKING THROUGHOUT THE TAXIWAY.

valid to:
1708111900




ICAO
BGTL (THULE (MIL))

FIR
BGGL

Notam_id:
BGA0281/17

valid from:
1706242235

E) ATC TOWER HAS NO WORKING RSI REMOTE STATUS INDICATOR AT THIS TIME.

valid to:
1707241100




ICAO
BGTL (THULE (MIL))

FIR
BGGL

Notam_id:
BGA0240/17

valid from:
1705151151

E) TWY CHARLIE CLSD.

valid to:
1708111900




ICAO
BGQQ (QAANAAQ)

FIR
BGGL

Notam_id:
BGB0223/17

valid from:
1703171130

E) FAX NUMBER +299 971428 OUT OF SERVICE.

valid to:
1708011200




ICAO
BGUK (UPERNAVIK)

FIR
BGGL

Notam_id:
BGB0538/17

valid from:
1707031119

E) SEA RESCUE SERVICE DOWNGRADED, DUE TO LACK OF STAFF.

valid to:
1709011400EST




ICAO
BGUK (UPERNAVIK)

FIR
BGGL

Notam_id:
BGB0564/17

valid from:
1707211358

E) THR ID LIGHTS RWY 23 U/S.

valid to:
1707281400EST


Replacing:
BGB0551/17

ICAO
BGGL (SONDRESTROM FIR)

FIR
BGGL

Notam_id:
BGA0293/17

valid from:
1708170000

E) TRIGGER NOTAM - PERM AIP AIRAC AMDT 08/17 WEF 17 AUG 2017. GEN 2.4: BGZZ/AMHS WITHDRAWN. ENR 2.1 AND ENR 6.2: LATERAL CHANGES TO SOENDRESTROEM SECTOR NORTH AND SONDRESTROEM SECTOR SOUTH.

valid to:
1708302359




ICAO
BGGL (SONDRESTROM FIR)

FIR
BGGL

Notam_id:
BGB0536/17

valid from:
1707011826

E) TUNULLIARFIK MAST 922FT OBST LIGHT ON TRANSMISSIONLINE OUT OF SERVICE. PSN 605254N0455957W.

valid to:
1709151600




ICAO
BGGL (SONDRESTROM FIR)

FIR
BGGL

Notam_id:
BGA0300/17

valid from:
1707010512

E) CHECKLIST YEAR=2015 0175 YEAR=2016 NIL YEAR=2017 0017 0110 0220 0239 0240 0254 0255 0257 0258 0259 0269 0281 0293 0294 0298 LATEST PUBLICATIONS AIP AIRAC AMDT IFR 008/2017 EFFECTIVE DATE 17 AUG 17 AIP AMDT IFR 006/2017 EFFECTIVE DATE 06 JUL 17 AIP SUP IFR 002/2017 EFFECTIVE DATE 23 MAY 17 AIC IFR A001/2017 EFFECTIVE DATE 21 MAR 17

valid to:
1708010512EST


Replacing:
BGA0260/17

ICAO
BGGL (SONDRESTROM FIR)

FIR
BGGL

Notam_id:
BGB0530/17

valid from:
1707010512

E) CHECKLIST YEAR=2016 0593 0666 YEAR=2017 0061 0125 0223 0264 0265 0369 0371 0406 0416 0424 0440 0441 0450 0472 0507 0519 0520 0522 0523 0524 0528 0529 LATEST PUBLICATIONS AIP AIRAC AMDT IFR 008/2017 EFFECTIVE DATE 17 AUG 17 AIP AMDT IFR 006/2017 EFFECTIVE DATE 06 JUL 17 AIP SUP IFR 002/2017 EFFECTIVE DATE 23 MAY 17 AIC IFR A001/2017 EFFECTIVE DATE 21 MAR 17

valid to:
1708010512EST


Replacing:
BGB0451/17

ICAO
BGGL (SONDRESTROM FIR)

FIR
BGGL

Notam_id:
BGC0026/17

valid from:
1707010513

E) CHECKLIST YEAR=2016 0044 YEAR=2017 0017 0019 0024 0025 LATEST PUBLICATIONS AIP AIRAC AMDT IFR 008/2017 EFFECTIVE DATE 17 AUG 17 AIP AMDT IFR 006/2017 EFFECTIVE DATE 06 JUL 17 AIP SUP IFR 002/2017 EFFECTIVE DATE 23 MAY 17 AIC IFR A001/2017 EFFECTIVE DATE 21 MAR 17

valid to:
1708010513EST


Replacing:
BGC0016/17

ICAO
BGGL (SONDRESTROM FIR)

FIR
BGGL

Notam_id:
BGA0257/17

valid from:
1707200000

E) TRIGGER NOTAM - PERM AIP AIRAC AMDT 07/17 WEF 20 JUL 2017. AAPPALUTTOQ (BGAU) ADDED. CHANGE TO TEL NR AT NARSARSUAQ. GEN 3.5 (CHAPTER 3): CHANGES IN METEOROLOGICAL OBSERVATIONS AND REPORTS AT BGSF, BGGH AND BGQQ

valid to:
1708022359




ICAO
BGGL (SONDRESTROM FIR)

FIR
BGGL

Notam_id:
BGB0535/17

valid from:
1707011825

E) KANGERLLUARSUK MAST 263FT OBST LIGHT ON TRANSMISSIONLINE OUT OF SERVICE. PSN 605130N0455730W.

valid to:
1709151600




ICAO
BGJN (ILULISSAT)

FIR
BGGL

Notam_id:
BGB0416/17

valid from:
1707010001

E) OPERATIONAL HOURS: SUNDAY 1100-1700 UTC.

valid to:
1708271700




ICAO
BGSF (KANGERLUSSUAQ)

FIR
BGGL

Notam_id:
BGA0175/15

valid from:
1505010000

E) FOR AIRCRAFT PLANNING ON USING BGSF AS RALT/ALTN/DEST/ETOPS OUTSIDE NORMAL AIRPORT OPERATING HOURS, REQUEST MUST BE SENT VIA EMAIL TO PPR AT MIT.GL OR REQUESTED BY PHONE ON 00299524227. ALSO SUBMIT FPL VIA AFTN. ENSURE CONFIRMATION PRIOR TO DEPARTURE IN ACCORDANCE WITH ICAO ANNEX 6, PART 2 NAT-OPERATIONS.

valid to:
PERM




ICAO
BGSF (KANGERLUSSUAQ)

FIR
BGGL

Notam_id:
BGB0406/17

valid from:
1705160001

E) REDUCED LONGITUDINAL SEPARATION BASED ON GNSS IS NOW BEING IMPLEMENTED IN SONDRESTROM AIRSPACE. REF AIP: AIC A001/17 INTRODUCTION TO GNSS LONGITUDINAL SEPARATION IN BGSF.

valid to:
1708252359




ICAO
BGSF (KANGERLUSSUAQ)

FIR
BGGL

Notam_id:
BGA0294/17

valid from:
1708170000

E) TRIGGER NOTAM - PERM AIP AIRAC AMDT 08/17 WEF 17 AUG 2017. NEW TEXT CONCERNING AIRCRAFT PLANNING OUTSIDE NORMAL AIRPORT OPERATING HOURS. NEW REMARK CONCERNING SURFACE AT THE APRON AND TAXIWAYS.

valid to:
1708302359




ICAO
BGSF (KANGERLUSSUAQ)

FIR
BGGL

Notam_id:
BGA0255/17

valid from:
1705301305

E) THERE ARE AREAS WITH MINOR CRACKS AND UNEVEN SURFACE AT THE TWYS

valid to:
PERM




ICAO
BGSF (KANGERLUSSUAQ)

FIR
BGGL

Notam_id:
BGA0254/17

valid from:
1705301303

E) THERE ARE AREAS WITH MINOR CRACKS AND UNEVEN SURFACE AT THE APRON

valid to:
PERM





Copyright Naviair   2003-2016